Kaycee, Wyoming
Current Conditions -  °F | °C
As of 12:53 AM on Saturday 29 Nov 2014 (Local Time) from KBYG Reporting Station
Clear Clear  
Wind Chill: 54°   Ceiling: Unl
Heat Index: 54°   Visibility: 10mi
Dew Point: 12°   Wind: 24mph
Humidity: 19%   Direction: 250°WSW
Pressure: 29.47"   Gusts: 35mph
Location:  43.71°N, 106.64°W
Report Text: KBYG 290753Z AUTO 25021G30KT 10SM CLR 12/M11 A2947 RMK AO2 PK WND 24039/0722 SLP944 T01221111 $
Loading
Personal Weather Stations






























Interactive Weather Map New forecast layout! Learn more

10-Day Weather Forecast

Advertisements
Track Severe Weather on mobile